createdAt,value
2023-03-13T00:01:21.753Z,1.60
2023-03-13T00:03:50.185Z,1.45
2023-03-13T00:06:19.139Z,1.20
2023-03-13T00:08:47.371Z,1.60
2023-03-13T00:11:16.752Z,1.52
2023-03-13T00:13:46.378Z,1.55
2023-03-13T00:16:16.812Z,1.58
2023-03-13T00:18:48.713Z,1.38
2023-03-13T00:21:17.836Z,1.15
2023-03-13T00:23:46.682Z,1.67
2023-03-13T00:26:16.806Z,1.17
2023-03-13T00:28:46.939Z,1.60
2023-03-13T00:31:16.781Z,1.60
2023-03-13T00:33:46.561Z,1.20
2023-03-13T00:36:16.475Z,1.30
2023-03-13T00:38:45.054Z,1.30
2023-03-13T00:41:15.619Z,1.40
2023-03-13T00:43:46.965Z,1.50
2023-03-13T00:46:16.787Z,1.38
2023-03-13T00:48:44.993Z,1.48
2023-03-13T00:51:13.841Z,1.27
2023-03-13T00:53:42.046Z,0.93
2023-03-13T00:56:12.533Z,1.48
2023-03-13T00:58:42.228Z,1.20
2023-03-13T01:01:14.485Z,1.27
2023-03-13T01:03:44.249Z,1.58
2023-03-13T01:06:14.773Z,1.40
2023-03-13T01:08:43.015Z,1.30
2023-03-13T01:11:13.441Z,1.20
2023-03-13T01:13:42.332Z,1.30
2023-03-13T01:16:14.813Z,1.35
2023-03-13T01:18:46.041Z,1.10
2023-03-13T01:21:15.420Z,1.15
2023-03-13T01:23:43.604Z,1.45
2023-03-13T01:26:11.788Z,1.33
2023-03-13T01:28:40.086Z,1.08
2023-03-13T01:31:17.782Z,1.27
2023-03-13T01:33:47.038Z,1.38
2023-03-13T01:36:15.527Z,1.25
2023-03-13T01:38:43.816Z,1.10
2023-03-13T01:41:13.542Z,1.38
2023-03-13T01:43:41.935Z,1.15
2023-03-13T01:46:17.951Z,1.50
2023-03-13T01:48:50.969Z,1.20
2023-03-13T01:51:22.569Z,1.45
2023-03-13T01:53:56.520Z,1.17
2023-03-13T01:56:30.761Z,1.17
2023-03-13T01:59:00.552Z,1.17
2023-03-13T02:01:31.286Z,1.38
2023-03-13T02:03:59.948Z,1.05
2023-03-13T02:06:32.133Z,1.02
2023-03-13T02:09:05.032Z,1.10
2023-03-13T02:11:44.570Z,1.10
2023-03-13T02:14:14.248Z,1.30
2023-03-13T02:16:47.772Z,1.23
2023-03-13T02:19:20.977Z,1.27
2023-03-13T02:21:56.338Z,1.40
2023-03-13T02:24:33.478Z,1.25
2023-03-13T02:27:04.120Z,0.90
2023-03-13T02:29:32.713Z,1.10
2023-03-13T02:32:00.876Z,1.23
2023-03-13T02:34:33.874Z,1.27
2023-03-13T02:37:03.508Z,1.20
2023-03-13T02:39:33.984Z,1.08
2023-03-13T02:42:04.893Z,1.00
2023-03-13T02:44:33.003Z,1.05
2023-03-13T02:47:01.128Z,1.30
2023-03-13T02:49:31.177Z,1.00
2023-03-13T02:52:01.298Z,1.58
2023-03-13T02:54:33.779Z,1.23
2023-03-13T02:57:05.857Z,1.20
2023-03-13T02:59:44.757Z,1.10
2023-03-13T03:02:12.957Z,1.30
2023-03-13T03:04:41.478Z,1.20
2023-03-13T03:07:09.638Z,1.20
2023-03-13T03:09:37.817Z,1.25
2023-03-13T03:12:08.403Z,1.25
2023-03-13T03:14:36.529Z,1.27
2023-03-13T03:17:04.714Z,1.00
2023-03-13T03:19:32.958Z,1.13
2023-03-13T03:22:01.105Z,1.65
2023-03-13T03:24:29.401Z,1.35
2023-03-13T03:26:57.588Z,1.13
2023-03-13T03:29:27.755Z,1.25
2023-03-13T03:31:56.213Z,1.20
2023-03-13T03:34:24.529Z,1.30
2023-03-13T03:36:52.673Z,1.30
2023-03-13T03:39:20.909Z,1.52
2023-03-13T03:41:49.020Z,1.05
2023-03-13T03:44:17.148Z,1.20
2023-03-13T03:46:46.728Z,1.27
2023-03-13T03:49:14.979Z,1.40
2023-03-13T03:51:43.106Z,1.10
2023-03-13T03:54:26.076Z,1.30
2023-03-13T03:57:04.402Z,1.30
2023-03-13T03:59:32.494Z,1.38
2023-03-13T04:02:02.012Z,0.90
2023-03-13T04:04:30.130Z,1.10
2023-03-13T04:06:58.216Z,0.90
2023-03-13T04:09:26.385Z,1.10
2023-03-13T04:11:54.566Z,1.00
2023-03-13T04:14:22.781Z,1.10
2023-03-13T04:16:50.982Z,1.45
2023-03-13T04:19:20.641Z,1.42
2023-03-13T04:21:48.810Z,1.30
2023-03-13T04:24:17.045Z,1.20
2023-03-13T04:26:45.318Z,1.08
2023-03-13T04:29:13.476Z,1.15
2023-03-13T04:31:41.590Z,1.30
2023-03-13T04:34:09.752Z,1.20
2023-03-13T04:36:39.295Z,1.15
2023-03-13T04:39:07.478Z,1.23
2023-03-13T04:41:35.588Z,1.13
2023-03-13T04:44:03.889Z,1.10
2023-03-13T04:46:32.101Z,1.30
2023-03-13T04:49:00.307Z,1.50
2023-03-13T04:51:28.581Z,1.20
2023-03-13T04:53:58.072Z,1.40
2023-03-13T04:56:42.260Z,1.30
2023-03-13T04:59:13.231Z,1.27
2023-03-13T05:01:41.803Z,1.25
2023-03-13T05:04:10.246Z,1.00
2023-03-13T05:06:38.466Z,1.00
2023-03-13T05:09:08.228Z,0.95
2023-03-13T05:11:36.585Z,1.15
2023-03-13T05:14:04.805Z,1.20
2023-03-13T05:16:32.926Z,0.98
2023-03-13T05:19:01.038Z,1.00
2023-03-13T05:21:29.224Z,1.10
2023-03-13T05:23:57.588Z,1.27
2023-03-13T05:26:27.153Z,1.08
2023-03-13T05:28:55.263Z,1.35
2023-03-13T05:31:23.482Z,1.20
2023-03-13T05:33:58.128Z,1.25
2023-03-13T05:36:26.344Z,1.38
2023-03-13T05:38:54.559Z,1.00
2023-03-13T05:41:22.617Z,1.10
2023-03-13T05:43:52.212Z,1.13
2023-03-13T05:46:20.431Z,1.10
2023-03-13T05:48:48.588Z,1.10
2023-03-13T05:51:16.851Z,1.20
2023-03-13T05:53:44.986Z,1.15
2023-03-13T05:56:13.115Z,0.90
2023-03-13T05:58:41.389Z,1.00
2023-03-13T06:01:13.026Z,1.25
2023-03-13T06:03:41.446Z,1.00
2023-03-13T06:06:09.667Z,1.05
2023-03-13T06:08:37.884Z,0.93
2023-03-13T06:11:06.418Z,0.90
2023-03-13T06:13:34.563Z,1.10
2023-03-13T06:16:02.847Z,1.00
2023-03-13T06:18:32.556Z,1.10
2023-03-13T06:21:02.483Z,1.00
2023-03-13T06:23:30.779Z,1.00
2023-03-13T06:25:58.921Z,1.25
2023-03-13T06:28:27.014Z,1.10
2023-03-13T06:30:55.355Z,1.10
2023-03-13T06:33:23.652Z,0.93
2023-03-13T06:35:56.634Z,1.20
2023-03-13T06:38:25.647Z,0.90
2023-03-13T06:40:53.977Z,1.10
2023-03-13T06:43:22.925Z,1.17
2023-03-13T06:45:51.535Z,1.38
2023-03-13T06:48:20.274Z,1.20
2023-03-13T06:50:57.263Z,0.95
2023-03-13T06:53:25.369Z,1.30
2023-03-13T06:55:53.519Z,1.30
2023-03-13T06:58:32.738Z,1.40
2023-03-13T07:01:01.556Z,1.30
2023-03-13T07:03:29.801Z,1.58
2023-03-13T07:06:00.267Z,1.50
2023-03-13T07:08:28.873Z,1.10
2023-03-13T07:11:01.460Z,1.60
2023-03-13T07:13:29.795Z,0.98
2023-03-13T07:16:01.025Z,1.10
2023-03-13T07:18:29.198Z,1.00
2023-03-13T07:20:59.870Z,1.10
2023-03-13T07:23:29.614Z,1.40
2023-03-13T07:25:59.143Z,1.30
2023-03-13T07:28:28.482Z,1.25
2023-03-13T07:30:56.626Z,1.35
2023-03-13T07:33:24.772Z,1.30
2023-03-13T07:35:54.344Z,1.30
2023-03-13T07:38:23.830Z,1.20
2023-03-13T07:40:52.278Z,1.38
2023-03-13T07:43:20.949Z,1.08
2023-03-13T07:45:55.920Z,1.20
2023-03-13T07:48:24.968Z,0.80
2023-03-13T07:50:53.453Z,1.10
2023-03-13T07:53:23.236Z,1.00
2023-03-13T07:55:56.289Z,1.20
2023-03-13T07:58:25.570Z,1.25
2023-03-13T08:00:54.330Z,1.15
2023-03-13T08:03:23.508Z,1.20
2023-03-13T08:06:00.125Z,1.08
2023-03-13T08:08:30.320Z,0.90
2023-03-13T08:11:02.449Z,1.33
2023-03-13T08:13:30.639Z,1.20
2023-03-13T08:16:10.194Z,1.17
2023-03-13T08:18:39.716Z,1.02
2023-03-13T08:21:27.074Z,0.90
2023-03-13T08:23:58.174Z,0.88
2023-03-13T08:26:29.483Z,1.10
2023-03-13T08:28:59.040Z,1.05
2023-03-13T08:31:29.004Z,1.13
2023-03-13T08:33:57.161Z,1.30
2023-03-13T08:36:27.842Z,1.20
2023-03-13T08:39:00.551Z,1.08
2023-03-13T08:41:30.477Z,1.13
2023-03-13T08:43:59.310Z,0.90
2023-03-13T08:46:29.987Z,1.20
2023-03-13T08:48:58.579Z,0.80
2023-03-13T08:51:28.407Z,1.33
2023-03-13T08:53:58.610Z,0.90
2023-03-13T08:56:28.718Z,0.90
2023-03-13T08:58:58.837Z,1.15
2023-03-13T09:01:29.203Z,0.98
2023-03-13T09:03:58.042Z,1.20
2023-03-13T09:06:26.377Z,1.05
2023-03-13T09:08:54.512Z,0.80
2023-03-13T09:11:24.007Z,1.08
2023-03-13T09:13:52.821Z,0.95
2023-03-13T09:16:22.542Z,1.00
2023-03-13T09:18:51.925Z,0.98
2023-03-13T09:21:22.484Z,1.00
2023-03-13T09:23:50.784Z,1.05
2023-03-13T09:26:22.657Z,0.93
2023-03-13T09:28:52.966Z,0.90
2023-03-13T09:31:23.501Z,0.88
2023-03-13T09:33:52.612Z,0.73
2023-03-13T09:36:22.909Z,0.95
2023-03-13T09:38:51.904Z,0.90
2023-03-13T09:41:25.173Z,1.00
2023-03-13T09:44:01.613Z,0.90
2023-03-13T09:46:37.181Z,1.17
2023-03-13T09:49:11.184Z,0.98
2023-03-13T09:51:42.974Z,0.75
2023-03-13T09:54:23.515Z,0.93
2023-03-13T09:56:56.362Z,1.00
2023-03-13T09:59:30.865Z,0.90
2023-03-13T10:02:01.771Z,1.00
2023-03-13T10:04:35.555Z,0.80
2023-03-13T10:07:04.898Z,0.90
2023-03-13T10:09:34.282Z,1.10
2023-03-13T10:12:12.314Z,0.85
2023-03-13T10:14:45.449Z,0.90
2023-03-13T10:17:24.220Z,0.80
2023-03-13T10:19:59.201Z,1.02
2023-03-13T10:22:30.123Z,1.02
2023-03-13T10:25:01.795Z,0.68
2023-03-13T10:27:30.092Z,0.80
2023-03-13T10:29:59.601Z,0.77
2023-03-13T10:32:28.837Z,0.88
2023-03-13T10:34:59.748Z,0.70
2023-03-13T10:37:30.128Z,1.00
2023-03-13T10:40:14.173Z,0.90
2023-03-13T10:42:46.168Z,0.80
2023-03-13T10:45:20.031Z,0.98
2023-03-13T10:47:56.342Z,0.85
2023-03-13T10:50:26.102Z,1.00
2023-03-13T10:52:55.171Z,0.80
2023-03-13T10:55:25.458Z,0.90
2023-03-13T10:57:58.925Z,0.77
2023-03-13T11:00:35.353Z,0.90
2023-03-13T11:03:06.627Z,0.80
2023-03-13T11:05:39.977Z,0.80
2023-03-13T11:08:23.786Z,0.70
2023-03-13T11:10:58.656Z,0.85
2023-03-13T11:13:42.837Z,0.90
2023-03-13T11:16:20.441Z,0.98
2023-03-13T11:19:15.933Z,0.90
2023-03-13T11:21:55.796Z,0.70
2023-03-13T11:24:31.594Z,0.75
2023-03-13T11:27:08.410Z,0.85
2023-03-13T11:29:46.109Z,0.75
2023-03-13T11:32:24.211Z,0.80
2023-03-13T11:34:56.202Z,0.98
2023-03-13T11:37:25.997Z,0.98
2023-03-13T11:40:04.491Z,0.70
2023-03-13T11:42:58.621Z,0.77
2023-03-13T11:45:53.652Z,0.88
2023-03-13T11:48:44.142Z,0.85
2023-03-13T11:51:20.934Z,0.70
2023-03-13T11:54:10.049Z,0.70
2023-03-13T11:56:43.580Z,1.10
2023-03-13T11:59:37.615Z,0.80
2023-03-13T12:02:17.076Z,0.80
2023-03-13T12:04:52.468Z,0.98
2023-03-13T12:07:28.552Z,1.00
2023-03-13T12:10:01.602Z,0.80
2023-03-13T12:12:41.548Z,1.00
2023-03-13T12:15:21.765Z,0.63
2023-03-13T12:17:56.220Z,0.70
2023-03-13T12:20:29.264Z,0.90
2023-03-13T12:23:17.846Z,0.90
2023-03-13T12:25:51.490Z,1.00
2023-03-13T12:28:30.214Z,0.65
2023-03-13T12:31:05.470Z,0.60
2023-03-13T12:33:40.258Z,1.00
2023-03-13T12:36:15.320Z,0.80
2023-03-13T12:38:49.915Z,0.80
2023-03-13T12:41:25.779Z,0.80
2023-03-13T12:44:07.744Z,0.73
2023-03-13T12:46:41.820Z,0.70
2023-03-13T12:49:38.162Z,0.95
2023-03-13T12:52:43.272Z,0.68
2023-03-13T12:56:02.284Z,0.80
2023-03-13T12:58:45.106Z,0.82
2023-03-13T13:01:21.032Z,0.77
2023-03-13T13:03:55.013Z,0.63
2023-03-13T13:06:23.798Z,0.70
2023-03-13T13:09:09.554Z,0.82
2023-03-13T13:11:49.351Z,0.60
2023-03-13T13:14:59.750Z,0.90
2023-03-13T13:17:49.530Z,0.80
2023-03-13T13:20:45.458Z,0.73
2023-03-13T13:23:33.678Z,0.80
2023-03-13T13:26:47.451Z,0.75
2023-03-13T13:29:58.072Z,0.60
2023-03-13T13:32:48.940Z,0.80
2023-03-13T13:35:26.607Z,0.70
2023-03-13T13:38:19.878Z,0.63
2023-03-13T13:41:01.017Z,0.70
2023-03-13T13:46:06.061Z,0.70
2023-03-13T13:48:37.992Z,0.80
2023-03-13T13:51:28.690Z,0.80
2023-03-13T13:53:59.898Z,0.77
2023-03-13T13:56:50.582Z,0.73
2023-03-13T13:59:34.355Z,0.77
2023-03-13T14:02:24.521Z,0.73
2023-03-13T14:05:02.875Z,0.98
2023-03-13T14:07:39.509Z,0.80
2023-03-13T14:10:19.085Z,0.65
2023-03-13T14:12:52.630Z,0.70
2023-03-13T14:15:22.461Z,0.60
2023-03-13T14:17:52.678Z,0.85
2023-03-13T14:20:31.608Z,0.60
2023-03-13T14:23:02.444Z,0.60
2023-03-13T14:25:43.843Z,0.68
2023-03-13T14:28:21.644Z,0.70
2023-03-13T14:30:52.416Z,0.80
2023-03-13T14:33:20.732Z,0.75
2023-03-13T14:35:50.499Z,0.90
2023-03-13T14:38:21.086Z,0.82
2023-03-13T14:40:50.407Z,0.70
2023-03-13T14:43:32.382Z,0.75
2023-03-13T14:46:01.646Z,0.63
2023-03-13T14:48:32.963Z,0.70
2023-03-13T14:51:15.650Z,0.70
2023-03-13T14:53:56.384Z,0.73
2023-03-13T14:56:33.863Z,0.55
2023-03-13T14:59:09.521Z,0.70
2023-03-13T15:01:37.903Z,0.80
2023-03-13T15:04:06.265Z,0.90
2023-03-13T15:06:35.931Z,0.65
2023-03-13T15:09:19.764Z,0.80
2023-03-13T15:11:59.763Z,0.70
2023-03-13T15:14:42.783Z,0.70
2023-03-13T15:17:15.199Z,0.60
2023-03-13T15:19:43.660Z,0.70
2023-03-13T15:22:16.247Z,0.60
2023-03-13T15:24:56.162Z,0.52
2023-03-13T15:27:33.065Z,0.60
2023-03-13T15:30:01.244Z,0.63
2023-03-13T15:32:31.503Z,0.70
2023-03-13T15:35:01.942Z,0.60
2023-03-13T15:37:32.323Z,0.63
2023-03-13T15:40:00.620Z,0.63
2023-03-13T15:42:28.684Z,0.80
2023-03-13T15:44:56.849Z,0.82
2023-03-13T15:47:25.032Z,0.75
2023-03-13T15:49:53.239Z,0.63
2023-03-13T15:52:23.576Z,0.60
2023-03-13T15:54:53.499Z,0.70
2023-03-13T15:57:25.144Z,0.60
2023-03-13T15:59:54.372Z,0.65
2023-03-13T16:02:24.301Z,0.60
2023-03-13T16:04:53.108Z,0.40
2023-03-13T16:07:22.580Z,0.47
2023-03-13T16:09:52.102Z,0.70
2023-03-13T16:12:20.228Z,0.75
2023-03-13T16:14:48.364Z,0.50
2023-03-13T16:17:18.638Z,0.68
2023-03-13T16:19:47.969Z,0.60
2023-03-13T16:22:17.349Z,0.80
2023-03-13T16:24:45.591Z,0.50
2023-03-13T16:27:17.458Z,0.70
2023-03-13T16:29:46.238Z,0.50
2023-03-13T16:32:16.702Z,0.60
2023-03-13T16:34:45.025Z,0.50
2023-03-13T16:37:14.428Z,0.60
2023-03-13T16:39:43.111Z,0.70
2023-03-13T16:42:11.624Z,0.68
2023-03-13T16:44:41.823Z,1.17
2023-03-13T16:47:21.737Z,1.00
2023-03-13T16:49:49.966Z,0.98
2023-03-13T16:52:19.118Z,0.90
2023-03-13T16:54:47.590Z,0.80
2023-03-13T16:57:18.017Z,1.17
2023-03-13T16:59:47.600Z,0.70
2023-03-13T17:02:17.358Z,0.93
2023-03-13T17:04:46.276Z,0.85
2023-03-13T17:07:25.322Z,0.90
2023-03-13T17:09:54.414Z,1.02
2023-03-13T17:12:22.604Z,0.98
2023-03-13T17:14:52.095Z,0.93
2023-03-13T17:17:22.986Z,0.95
2023-03-13T17:19:51.188Z,0.95
2023-03-13T17:22:19.595Z,1.40
2023-03-13T17:24:49.109Z,1.10
2023-03-13T17:27:19.099Z,0.98
2023-03-13T17:29:47.371Z,1.05
2023-03-13T17:32:17.050Z,0.93
2023-03-13T17:34:45.336Z,0.80
2023-03-13T17:37:16.819Z,0.90
2023-03-13T17:39:45.797Z,0.73
2023-03-13T17:42:14.052Z,1.35
2023-03-13T17:44:42.570Z,0.80
2023-03-13T17:47:14.504Z,0.90
2023-03-13T17:49:44.661Z,0.88
2023-03-13T17:52:16.945Z,1.00
2023-03-13T17:54:46.213Z,1.20
2023-03-13T17:57:17.145Z,1.20
2023-03-13T17:59:45.659Z,0.80
2023-03-13T18:02:15.148Z,0.75
2023-03-13T18:04:45.708Z,1.02
2023-03-13T18:07:22.408Z,1.10
2023-03-13T18:09:50.597Z,1.05
2023-03-13T18:12:18.926Z,1.00
2023-03-13T18:14:47.276Z,0.90
2023-03-13T18:17:17.877Z,0.80
2023-03-13T18:19:47.589Z,1.13
2023-03-13T18:22:17.372Z,1.00
2023-03-13T18:24:46.116Z,1.10
2023-03-13T18:27:17.250Z,1.02
2023-03-13T18:29:47.026Z,0.95
2023-03-13T18:32:17.197Z,1.15
2023-03-13T18:34:47.174Z,0.83
2023-03-13T18:37:22.971Z,1.27
2023-03-13T18:39:51.415Z,0.90
2023-03-13T18:42:19.921Z,0.90
2023-03-13T18:44:48.140Z,1.20
2023-03-13T18:47:18.251Z,1.13
2023-03-13T18:49:48.818Z,0.90
2023-03-13T18:52:17.450Z,1.00
2023-03-13T18:54:45.957Z,0.73
2023-03-13T18:57:15.937Z,1.02
2023-03-13T18:59:44.481Z,0.88
2023-03-13T19:02:15.070Z,1.35
2023-03-13T19:04:43.413Z,1.27
2023-03-13T19:07:18.758Z,1.15
2023-03-13T19:09:47.553Z,1.55
2023-03-13T19:12:16.613Z,1.25
2023-03-13T19:14:44.832Z,1.00
2023-03-13T19:17:20.265Z,1.30
2023-03-13T19:19:48.490Z,1.02
2023-03-13T19:22:18.073Z,0.98
2023-03-13T19:24:46.398Z,0.98
2023-03-13T19:27:17.135Z,0.90
2023-03-13T19:29:46.012Z,1.10
2023-03-13T19:32:15.477Z,1.00
2023-03-13T19:34:43.684Z,1.30
2023-03-13T19:37:15.641Z,1.02
2023-03-13T19:39:45.204Z,0.98
2023-03-13T19:42:13.439Z,1.08
2023-03-13T19:44:41.996Z,1.25
2023-03-13T19:47:14.528Z,1.15
2023-03-13T19:49:43.008Z,1.00
2023-03-13T19:52:11.252Z,1.25
2023-03-13T19:54:39.517Z,1.20
2023-03-13T19:57:11.787Z,1.13
2023-03-13T19:59:40.136Z,1.00
2023-03-13T20:02:10.107Z,1.08
2023-03-13T20:04:39.558Z,1.25
2023-03-13T20:07:08.339Z,0.98
2023-03-13T20:09:36.903Z,1.17
2023-03-13T20:12:05.818Z,1.05
2023-03-13T20:14:35.584Z,1.05
2023-03-13T20:17:04.454Z,0.98
2023-03-13T20:19:33.028Z,1.30
2023-03-13T20:22:03.781Z,1.17
2023-03-13T20:24:33.669Z,0.95
2023-03-13T20:29:31.349Z,1.13
2023-03-13T20:32:04.521Z,0.90
2023-03-13T20:34:32.761Z,1.00
2023-03-13T20:37:01.032Z,1.20
2023-03-13T20:39:29.920Z,0.95
2023-03-13T20:42:02.652Z,0.90
2023-03-13T20:44:31.255Z,1.02
2023-03-13T20:47:00.998Z,0.98
2023-03-13T20:49:29.218Z,0.70
2023-03-13T20:51:57.517Z,0.88
2023-03-13T20:54:25.617Z,1.10
2023-03-13T20:56:53.753Z,0.80
2023-03-13T20:59:21.977Z,0.93
2023-03-13T21:01:50.148Z,1.20
2023-03-13T21:04:19.769Z,1.00
2023-03-13T21:06:49.932Z,0.98
2023-03-13T21:09:18.177Z,1.13
2023-03-13T21:11:46.316Z,0.90
2023-03-13T21:14:14.525Z,1.60
2023-03-13T21:16:42.700Z,1.10
2023-03-13T21:19:10.817Z,1.20
2023-03-13T21:21:40.342Z,0.80
2023-03-13T21:24:09.207Z,1.10
2023-03-13T21:26:37.456Z,1.00
2023-03-13T21:29:06.408Z,0.90
2023-03-13T21:31:34.506Z,1.00
2023-03-13T21:34:02.666Z,1.00
2023-03-13T21:36:30.916Z,1.08
2023-03-13T21:39:00.469Z,1.08
2023-03-13T21:41:28.682Z,1.15
2023-03-13T21:43:56.843Z,1.05
2023-03-13T21:46:25.361Z,1.00
2023-03-13T21:48:53.572Z,1.00
2023-03-13T21:51:21.732Z,0.90
2023-03-13T21:53:49.897Z,1.00
2023-03-13T21:56:21.117Z,0.98
2023-03-13T21:58:49.441Z,1.23
2023-03-13T22:01:18.122Z,1.10
2023-03-13T22:03:46.371Z,0.98
2023-03-13T22:06:15.495Z,0.90
2023-03-13T22:08:43.883Z,1.20
2023-03-13T22:11:12.666Z,1.00
2023-03-13T22:13:42.447Z,1.13
2023-03-13T22:16:11.591Z,0.98
2023-03-13T22:18:39.917Z,1.08
2023-03-13T22:21:08.245Z,0.77
2023-03-13T22:23:36.396Z,0.75
2023-03-13T22:26:04.908Z,1.15
2023-03-13T22:28:33.095Z,0.80
2023-03-13T22:31:03.617Z,0.90
2023-03-13T22:33:31.831Z,1.02
2023-03-13T22:36:00.212Z,1.00
2023-03-13T22:38:28.629Z,1.15
2023-03-13T22:41:01.017Z,1.00
2023-03-13T22:43:29.771Z,1.00
2023-03-13T22:45:59.139Z,0.80
2023-03-13T22:48:29.062Z,0.77
2023-03-13T22:51:01.815Z,1.10
2023-03-13T22:53:30.131Z,0.70
2023-03-13T22:55:58.253Z,0.90
2023-03-13T22:58:26.808Z,0.77
2023-03-13T23:00:55.858Z,0.85
2023-03-13T23:03:24.582Z,0.95
2023-03-13T23:05:54.157Z,0.90
2023-03-13T23:08:22.890Z,1.00
2023-03-13T23:10:51.027Z,1.17
2023-03-13T23:13:19.182Z,0.90
2023-03-13T23:15:55.545Z,0.93
2023-03-13T23:18:24.630Z,1.13
2023-03-13T23:20:54.982Z,1.02
2023-03-13T23:23:23.180Z,0.83
2023-03-13T23:25:51.682Z,0.98
2023-03-13T23:28:19.799Z,0.80
2023-03-13T23:30:47.889Z,0.85
2023-03-13T23:33:16.023Z,0.75
2023-03-13T23:35:45.173Z,1.10
2023-03-13T23:38:18.309Z,0.90
2023-03-13T23:40:46.673Z,0.93
2023-03-13T23:43:14.807Z,0.90
2023-03-13T23:45:42.961Z,1.10
2023-03-13T23:48:11.147Z,0.70
2023-03-13T23:50:39.364Z,0.90
2023-03-13T23:53:07.559Z,0.75
2023-03-13T23:55:37.075Z,1.00
2023-03-13T23:58:05.265Z,0.90
